createdAt,value
2023-04-05T00:01:53.379Z,10.63
2023-04-05T00:04:23.728Z,12.52
2023-04-05T00:06:52.515Z,10.73
2023-04-05T00:09:20.677Z,10.85
2023-04-05T00:11:47.956Z,12.60
2023-04-05T00:14:14.645Z,12.55
2023-04-05T00:16:41.409Z,11.57
2023-04-05T00:19:07.980Z,10.57
2023-04-05T00:21:34.516Z,11.32
2023-04-05T00:24:01.085Z,11.25
2023-04-05T00:26:28.018Z,12.52
2023-04-05T00:28:57.578Z,10.98
2023-04-05T00:31:24.108Z,12.15
2023-04-05T00:33:50.552Z,15.15
2023-04-05T00:36:19.526Z,9.52
2023-04-05T00:38:47.246Z,10.88
2023-04-05T00:41:14.339Z,11.70
2023-04-05T00:43:41.732Z,12.75
2023-04-05T00:46:09.274Z,12.13
2023-04-05T00:48:36.440Z,11.85
2023-04-05T00:51:03.186Z,11.77
2023-04-05T00:53:32.013Z,12.43
2023-04-05T00:55:58.576Z,11.70
2023-04-05T00:58:25.039Z,11.57
2023-04-05T01:01:07.539Z,12.25
2023-04-05T01:03:35.523Z,12.77
2023-04-05T01:06:28.497Z,10.80
2023-04-05T01:09:24.867Z,14.20
2023-04-05T01:11:55.664Z,12.48
2023-04-05T01:14:22.226Z,13.82
2023-04-05T01:16:57.911Z,10.23
2023-04-05T01:19:29.998Z,14.77
2023-04-05T01:22:40.298Z,13.25
2023-04-05T01:25:38.576Z,14.00
2023-04-05T01:28:41.166Z,11.55
2023-04-05T01:31:30.732Z,10.95
2023-04-05T01:34:34.925Z,14.43
2023-04-05T01:39:31.070Z,10.90
2023-04-05T01:41:59.903Z,12.50
2023-04-05T01:44:26.678Z,13.63
2023-04-05T01:46:55.752Z,11.68
2023-04-05T01:49:24.237Z,11.57
2023-04-05T01:51:50.799Z,14.65
2023-04-05T01:54:17.409Z,12.13
2023-04-05T01:56:43.876Z,14.98
2023-04-05T01:59:10.296Z,13.90
2023-04-05T02:01:36.817Z,13.95
2023-04-05T02:04:03.246Z,12.32
2023-04-05T02:06:32.119Z,12.13
2023-04-05T02:09:01.371Z,15.32
2023-04-05T02:11:27.761Z,14.73
2023-04-05T02:13:58.267Z,14.48
2023-04-05T02:16:27.066Z,13.45
2023-04-05T02:18:57.914Z,13.10
2023-04-05T02:21:26.034Z,12.10
2023-04-05T02:23:53.645Z,15.23
2023-04-05T02:26:21.131Z,13.85
2023-04-05T02:28:47.622Z,13.23
2023-04-05T02:31:14.598Z,14.57
2023-04-05T02:33:42.478Z,15.05
2023-04-05T02:36:11.005Z,15.35
2023-04-05T02:38:37.963Z,17.13
2023-04-05T02:41:08.661Z,13.00
2023-04-05T02:43:38.138Z,13.40
2023-04-05T02:46:04.733Z,17.20
2023-04-05T02:48:35.309Z,18.98
2023-04-05T02:51:03.098Z,18.77
2023-04-05T02:53:29.571Z,16.10
2023-04-05T02:56:00.870Z,18.15
2023-04-05T02:58:29.110Z,14.45
2023-04-05T03:00:56.312Z,16.73
2023-04-05T03:03:30.632Z,15.73
2023-04-05T03:06:09.783Z,14.05
2023-04-05T03:08:44.421Z,15.98
2023-04-05T03:13:43.380Z,17.63
2023-04-05T03:16:17.475Z,17.08
2023-04-05T03:18:44.165Z,17.90
2023-04-05T03:21:11.358Z,15.63
2023-04-05T03:23:46.494Z,17.83
2023-04-05T03:26:15.742Z,16.17
2023-04-05T03:28:47.500Z,14.40
2023-04-05T03:31:14.289Z,18.05
2023-04-05T03:33:41.009Z,18.77
2023-04-05T03:36:08.356Z,17.88
2023-04-05T03:38:38.343Z,15.15
2023-04-05T03:41:13.207Z,18.02
2023-04-05T03:43:39.640Z,15.48
2023-04-05T03:46:06.324Z,16.48
2023-04-05T03:48:33.159Z,14.93
2023-04-05T03:50:59.644Z,17.50
2023-04-05T03:53:26.287Z,14.82
2023-04-05T03:55:55.736Z,16.85
2023-04-05T03:58:38.009Z,16.77
2023-04-05T04:01:04.773Z,19.20
2023-04-05T04:03:31.601Z,15.07
2023-04-05T04:05:58.360Z,15.48
2023-04-05T04:08:26.313Z,16.35
2023-04-05T04:10:52.702Z,18.58
2023-04-05T04:13:24.808Z,18.52
2023-04-05T04:16:00.271Z,16.70
2023-04-05T04:18:43.575Z,18.60
2023-04-05T04:21:25.382Z,16.42
2023-04-05T04:24:16.199Z,18.27
2023-04-05T04:27:01.722Z,16.40
2023-04-05T04:29:46.464Z,17.25
2023-04-05T04:32:51.511Z,19.35
2023-04-05T04:35:39.208Z,18.02
2023-04-05T04:38:26.573Z,16.58
2023-04-05T04:41:11.675Z,16.98
2023-04-05T04:43:44.583Z,18.27
2023-04-05T04:46:34.649Z,20.02
2023-04-05T04:49:07.094Z,17.85
2023-04-05T04:51:34.134Z,20.27
2023-04-05T04:54:00.657Z,18.20
2023-04-05T04:56:27.433Z,19.85
2023-04-05T04:58:56.509Z,15.52
2023-04-05T05:01:24.904Z,17.83
2023-04-05T05:03:52.207Z,20.17
2023-04-05T05:06:27.005Z,18.17
2023-04-05T05:08:54.008Z,18.70
2023-04-05T05:11:20.790Z,21.52
2023-04-05T05:13:50.557Z,18.50
2023-04-05T05:16:23.429Z,20.08
2023-04-05T05:18:53.228Z,19.13
2023-04-05T05:21:21.377Z,21.65
2023-04-05T05:23:57.785Z,19.83
2023-04-05T05:26:24.256Z,20.05
2023-04-05T05:28:50.942Z,19.58
2023-04-05T05:31:18.237Z,18.08
2023-04-05T05:33:49.329Z,20.02
2023-04-05T05:36:15.983Z,23.25
2023-04-05T05:38:43.460Z,21.75
2023-04-05T05:41:10.215Z,19.95
2023-04-05T05:43:36.581Z,20.08
2023-04-05T05:46:03.006Z,19.08
2023-04-05T05:48:29.448Z,20.13
2023-04-05T05:50:57.130Z,26.88
2023-04-05T05:53:23.855Z,20.67
2023-04-05T05:55:50.280Z,22.65
2023-04-05T05:58:16.656Z,24.65
2023-04-05T06:00:44.063Z,23.92
2023-04-05T06:03:10.979Z,22.50
2023-04-05T06:05:37.449Z,25.10
2023-04-05T06:08:04.000Z,22.67
2023-04-05T06:10:31.168Z,23.15
2023-04-05T06:12:57.540Z,25.27
2023-04-05T06:15:23.926Z,21.23
2023-04-05T06:17:50.378Z,20.55
2023-04-05T06:20:17.342Z,26.00
2023-04-05T06:22:44.416Z,24.42
2023-04-05T06:25:12.824Z,24.42
2023-04-05T06:27:39.369Z,21.02
2023-04-05T06:30:06.626Z,22.10
2023-04-05T06:32:33.038Z,26.77
2023-04-05T06:35:00.722Z,21.42
2023-04-05T06:37:27.120Z,22.85
2023-04-05T06:39:53.769Z,24.23
2023-04-05T06:42:20.257Z,20.98
2023-04-05T06:44:53.393Z,21.08
2023-04-05T06:47:19.776Z,16.60
2023-04-05T06:49:46.129Z,30.23
2023-04-05T06:52:12.506Z,24.70
2023-04-05T06:54:39.500Z,18.75
2023-04-05T06:57:05.994Z,26.20
2023-04-05T06:59:32.555Z,27.77
2023-04-05T07:01:59.034Z,19.15
2023-04-05T07:04:26.600Z,20.77
2023-04-05T07:06:53.803Z,13.35
2023-04-05T07:09:22.341Z,16.52
2023-04-05T07:11:48.720Z,17.60
2023-04-05T07:14:15.099Z,15.30
2023-04-05T07:16:41.491Z,15.88
2023-04-05T07:19:08.080Z,15.30
2023-04-05T07:21:34.670Z,19.00
2023-04-05T07:24:03.131Z,20.20
2023-04-05T07:26:29.498Z,18.50
2023-04-05T07:28:55.965Z,20.52
2023-04-05T07:31:22.358Z,20.30
2023-04-05T07:33:48.754Z,22.77
2023-04-05T07:36:15.237Z,17.02
2023-04-05T07:38:42.233Z,20.25
2023-04-05T07:41:08.932Z,17.35
2023-04-05T07:43:35.318Z,16.17
2023-04-05T07:46:03.724Z,20.15
2023-04-05T07:48:30.926Z,18.92
2023-04-05T07:51:02.435Z,18.80
2023-04-05T07:53:28.993Z,16.65
2023-04-05T07:55:57.576Z,16.65
2023-04-05T07:58:24.014Z,18.70
2023-04-05T08:00:53.173Z,14.95
2023-04-05T08:03:19.716Z,16.60
2023-04-05T08:05:46.193Z,12.30
2023-04-05T08:08:12.728Z,14.85
2023-04-05T08:10:40.416Z,10.57
2023-04-05T08:13:08.146Z,14.27
2023-04-05T08:15:34.777Z,13.95
2023-04-05T08:18:01.311Z,13.75
2023-04-05T08:20:27.801Z,13.82
2023-04-05T08:22:54.199Z,14.40
2023-04-05T08:25:21.072Z,13.93
2023-04-05T08:27:47.668Z,14.50
2023-04-05T08:30:14.245Z,12.50
2023-04-05T08:32:40.971Z,11.90
2023-04-05T08:35:07.792Z,11.32
2023-04-05T08:37:37.296Z,14.32
2023-04-05T08:40:04.775Z,16.17
2023-04-05T08:42:46.218Z,15.50
2023-04-05T08:45:16.807Z,9.30
2023-04-05T08:47:43.617Z,9.32
2023-04-05T08:50:10.549Z,10.60
2023-04-05T08:52:39.453Z,9.10
2023-04-05T08:55:06.514Z,8.80
2023-04-05T08:57:37.477Z,11.05
2023-04-05T09:00:04.661Z,12.93
2023-04-05T09:02:32.610Z,11.55
2023-04-05T09:04:59.856Z,8.63
2023-04-05T09:07:29.654Z,8.52
2023-04-05T09:09:59.273Z,13.50
2023-04-05T09:12:26.505Z,16.73
2023-04-05T09:14:54.046Z,11.65
2023-04-05T09:17:21.505Z,9.40
2023-04-05T09:19:50.384Z,11.68
2023-04-05T09:22:18.468Z,13.18
2023-04-05T09:24:46.868Z,12.10
2023-04-05T09:27:18.026Z,10.45
2023-04-05T09:29:49.799Z,10.97
2023-04-05T09:32:19.142Z,13.30
2023-04-05T09:34:45.827Z,11.27
2023-04-05T09:37:21.999Z,13.18
2023-04-05T09:39:52.245Z,11.57
2023-04-05T09:42:22.635Z,9.18
2023-04-05T09:45:02.994Z,10.43
2023-04-05T09:47:36.703Z,13.20
2023-04-05T09:50:15.520Z,11.07
2023-04-05T09:52:43.253Z,11.43
2023-04-05T09:55:10.613Z,9.30
2023-04-05T09:57:38.615Z,10.10
2023-04-05T10:00:06.603Z,9.93
2023-04-05T10:02:41.152Z,13.63
2023-04-05T10:05:15.678Z,14.80
2023-04-05T10:07:43.307Z,13.00
2023-04-05T10:10:12.237Z,12.23
2023-04-05T10:12:41.338Z,13.77
2023-04-05T10:15:12.023Z,13.43
2023-04-05T10:18:08.402Z,10.43
2023-04-05T10:20:39.930Z,10.07
2023-04-05T10:23:13.513Z,11.10
2023-04-05T10:25:53.955Z,10.68
2023-04-05T10:28:57.010Z,13.48
2023-04-05T10:31:38.909Z,15.70
2023-04-05T10:34:15.934Z,12.88
2023-04-05T10:36:49.582Z,9.50
2023-04-05T10:39:41.373Z,9.77
2023-04-05T10:42:20.110Z,12.57
2023-04-05T10:44:53.112Z,10.93
2023-04-05T10:47:23.011Z,12.40
2023-04-05T10:49:51.822Z,11.48
2023-04-05T10:52:18.695Z,11.63
2023-04-05T10:54:45.445Z,13.80
2023-04-05T10:57:12.876Z,12.38
2023-04-05T10:59:44.970Z,10.68
2023-04-05T11:02:11.909Z,10.15
2023-04-05T11:04:41.859Z,12.45
2023-04-05T11:07:18.926Z,12.02
2023-04-05T11:10:05.615Z,12.32
2023-04-05T11:12:52.268Z,10.75
2023-04-05T11:15:32.704Z,11.93
2023-04-05T11:18:09.568Z,11.93
2023-04-05T11:20:52.275Z,11.40
2023-04-05T11:23:21.125Z,13.63
2023-04-05T11:25:59.725Z,8.52
2023-04-05T11:28:30.328Z,13.65
2023-04-05T11:30:58.337Z,11.85
2023-04-05T11:33:38.892Z,8.15
2023-04-05T11:36:06.137Z,9.77
2023-04-05T11:38:32.868Z,10.50
2023-04-05T11:41:06.547Z,10.05
2023-04-05T11:43:35.453Z,9.85
2023-04-05T11:46:05.215Z,8.85
2023-04-05T11:48:31.734Z,9.48
2023-04-05T11:50:58.385Z,11.77
2023-04-05T11:53:24.820Z,8.27
2023-04-05T11:55:52.242Z,8.73
2023-04-05T11:58:23.265Z,9.20
2023-04-05T12:01:00.754Z,10.38
2023-04-05T12:03:30.908Z,10.07
2023-04-05T12:05:59.108Z,9.75
2023-04-05T12:08:39.766Z,8.85
2023-04-05T12:11:13.098Z,8.25
2023-04-05T12:16:08.105Z,10.00
2023-04-05T12:18:36.428Z,9.88
2023-04-05T12:21:10.248Z,13.98
2023-04-05T12:23:37.964Z,11.50
2023-04-05T12:26:07.342Z,9.50
2023-04-05T12:28:53.519Z,8.52
2023-04-05T12:31:44.040Z,9.23
2023-04-05T12:34:12.770Z,9.57
2023-04-05T12:36:43.666Z,8.93
2023-04-05T12:39:10.486Z,8.50
2023-04-05T12:41:37.324Z,9.25
2023-04-05T12:44:16.640Z,9.18
2023-04-05T12:46:44.808Z,8.98
2023-04-05T12:49:12.632Z,10.38
2023-04-05T12:51:46.111Z,8.98
2023-04-05T12:54:21.677Z,9.43
2023-04-05T12:56:52.975Z,8.30
2023-04-05T12:59:19.779Z,7.85
2023-04-05T13:01:46.503Z,10.32
2023-04-05T13:04:16.641Z,7.85
2023-04-05T13:06:47.304Z,8.05
2023-04-05T13:09:14.257Z,8.80
2023-04-05T13:11:40.796Z,9.00
2023-04-05T13:14:07.464Z,7.15
2023-04-05T13:16:33.896Z,6.53
2023-04-05T13:19:00.636Z,8.57
2023-04-05T13:21:27.449Z,8.55
2023-04-05T13:23:53.838Z,7.95
2023-04-05T13:26:20.909Z,7.65
2023-04-05T13:28:47.287Z,8.43
2023-04-05T13:31:15.685Z,6.88
2023-04-05T13:33:42.845Z,6.63
2023-04-05T13:36:10.856Z,9.32
2023-04-05T13:38:37.635Z,6.95
2023-04-05T13:41:04.315Z,8.35
2023-04-05T13:43:31.041Z,6.93
2023-04-05T13:45:57.485Z,7.75
2023-04-05T13:48:23.899Z,9.10
2023-04-05T13:50:50.523Z,9.27
2023-04-05T13:53:16.875Z,9.40
2023-04-05T13:55:43.409Z,6.00
2023-04-05T13:58:09.966Z,5.97
2023-04-05T14:00:38.083Z,6.78
2023-04-05T14:03:04.625Z,7.47
2023-04-05T14:05:31.063Z,9.32
2023-04-05T14:07:57.541Z,7.70
2023-04-05T14:10:24.204Z,5.95
2023-04-05T14:12:50.790Z,6.40
2023-04-05T14:15:17.841Z,9.45
2023-04-05T14:17:44.259Z,7.10
2023-04-05T14:20:11.657Z,8.75
2023-04-05T14:22:38.099Z,8.02
2023-04-05T14:25:04.902Z,7.38
2023-04-05T14:27:31.353Z,6.68
2023-04-05T14:29:57.851Z,7.20
2023-04-05T14:32:25.113Z,6.78
2023-04-05T14:34:51.536Z,10.07
2023-04-05T14:37:18.139Z,8.02
2023-04-05T14:39:44.585Z,8.60
2023-04-05T14:42:10.945Z,7.20
2023-04-05T14:44:37.448Z,8.65
2023-04-05T14:47:03.841Z,7.95
2023-04-05T14:49:30.258Z,7.93
2023-04-05T14:51:58.166Z,8.05
2023-04-05T14:54:24.591Z,8.70
2023-04-05T14:56:50.958Z,6.88
2023-04-05T14:59:17.372Z,7.05
2023-04-05T15:01:45.424Z,6.43
2023-04-05T15:04:12.335Z,6.07
2023-04-05T15:06:38.763Z,7.03
2023-04-05T15:09:05.148Z,9.73
2023-04-05T15:11:34.651Z,7.03
2023-04-05T15:14:01.231Z,6.20
2023-04-05T15:16:29.259Z,6.38
2023-04-05T15:18:56.040Z,7.53
2023-04-05T15:21:23.028Z,5.45
2023-04-05T15:23:49.427Z,7.78
2023-04-05T15:26:15.786Z,9.05
2023-04-05T15:28:42.165Z,7.10
2023-04-05T15:31:08.794Z,7.82
2023-04-05T15:33:35.168Z,8.32
2023-04-05T15:36:01.708Z,7.20
2023-04-05T15:38:28.158Z,6.60
2023-04-05T15:40:54.641Z,6.22
2023-04-05T15:43:22.167Z,5.93
2023-04-05T15:45:48.784Z,6.82
2023-04-05T15:48:15.301Z,6.18
2023-04-05T15:50:42.144Z,9.45
2023-04-05T15:53:08.914Z,6.97
2023-04-05T15:55:35.837Z,7.85
2023-04-05T15:58:02.213Z,6.38
2023-04-05T16:00:29.033Z,6.63
2023-04-05T16:03:00.469Z,7.90
2023-04-05T16:05:27.457Z,6.85
2023-04-05T16:07:54.350Z,7.15
2023-04-05T16:10:20.824Z,7.25
2023-04-05T16:12:47.293Z,7.22
2023-04-05T16:15:14.028Z,7.55
2023-04-05T16:17:40.574Z,10.70
2023-04-05T16:20:07.645Z,6.40
2023-04-05T16:22:34.146Z,5.82
2023-04-05T16:25:00.695Z,7.80
2023-04-05T16:27:27.240Z,7.53
2023-04-05T16:29:53.849Z,8.95
2023-04-05T16:32:20.596Z,5.57
2023-04-05T16:34:47.122Z,7.30
2023-04-05T16:37:13.522Z,7.35
2023-04-05T16:39:39.898Z,5.75
2023-04-05T16:42:07.785Z,7.57
2023-04-05T16:44:34.184Z,8.23
2023-04-05T16:47:00.596Z,6.07
2023-04-05T16:49:27.020Z,9.35
2023-04-05T16:51:53.485Z,7.03
2023-04-05T16:54:20.206Z,7.38
2023-04-05T16:56:46.623Z,9.20
2023-04-05T16:59:13.039Z,6.60
2023-04-05T17:01:39.441Z,7.20
2023-04-05T17:04:05.904Z,6.85
2023-04-05T17:06:32.443Z,8.63
2023-04-05T17:08:58.921Z,5.95
2023-04-05T17:11:28.136Z,11.43
2023-04-05T17:13:54.596Z,9.32
2023-04-05T17:16:22.335Z,6.90
2023-04-05T17:18:48.845Z,9.15
2023-04-05T17:21:15.324Z,8.05
2023-04-05T17:23:41.690Z,5.95
2023-04-05T17:26:08.484Z,6.13
2023-04-05T17:28:34.942Z,8.02
2023-04-05T17:31:02.637Z,8.50
2023-04-05T17:33:29.412Z,8.38
2023-04-05T17:35:55.960Z,8.90
2023-04-05T17:38:22.699Z,7.85
2023-04-05T17:40:49.153Z,6.47
2023-04-05T17:43:15.948Z,6.53
2023-04-05T17:45:42.411Z,9.15
2023-04-05T17:48:09.151Z,10.30
2023-04-05T17:50:37.070Z,9.05
2023-04-05T17:53:03.683Z,8.38
2023-04-05T17:55:33.451Z,8.57
2023-04-05T17:58:00.243Z,9.00
2023-04-05T18:00:26.730Z,8.93
2023-04-05T18:02:53.294Z,9.73
2023-04-05T18:05:19.889Z,8.52
2023-04-05T18:07:46.467Z,7.95
2023-04-05T18:10:13.191Z,9.75
2023-04-05T18:12:39.699Z,8.43
2023-04-05T18:15:06.775Z,9.65
2023-04-05T18:17:33.621Z,9.02
2023-04-05T18:20:00.035Z,9.68
2023-04-05T18:22:27.569Z,7.80
2023-04-05T18:24:53.998Z,9.93
2023-04-05T18:27:21.057Z,8.75
2023-04-05T18:29:48.394Z,11.43
2023-04-05T18:32:14.897Z,9.07
2023-04-05T18:34:41.610Z,11.20
2023-04-05T18:37:07.984Z,10.82
2023-04-05T18:39:34.400Z,10.68
2023-04-05T18:42:00.945Z,11.60
2023-04-05T18:44:27.309Z,10.85
2023-04-05T18:46:53.746Z,11.98
2023-04-05T18:49:21.111Z,13.73
2023-04-05T18:51:48.675Z,14.52
2023-04-05T18:54:18.158Z,11.95
2023-04-05T18:56:45.539Z,11.70
2023-04-05T18:59:12.359Z,12.23
2023-04-05T19:01:38.908Z,11.82
2023-04-05T19:04:05.905Z,14.18
2023-04-05T19:06:32.632Z,15.02
2023-04-05T19:08:59.660Z,10.95
2023-04-05T19:11:26.229Z,12.32
2023-04-05T19:13:53.746Z,16.23
2023-04-05T19:16:20.163Z,21.75
2023-04-05T19:18:46.585Z,18.67
2023-04-05T19:21:13.674Z,19.60
2023-04-05T19:23:40.040Z,17.00
2023-04-05T19:26:06.505Z,14.65
2023-04-05T19:28:32.914Z,17.85
2023-04-05T19:30:59.375Z,15.48
2023-04-05T19:33:26.085Z,16.95
2023-04-05T19:35:52.569Z,15.63
2023-04-05T19:38:22.078Z,16.20
2023-04-05T19:40:48.950Z,12.82
2023-04-05T19:43:15.533Z,15.30
2023-04-05T19:45:42.202Z,16.73
2023-04-05T19:48:39.170Z,12.40
2023-04-05T19:51:07.666Z,16.70
2023-04-05T19:53:47.834Z,13.23
2023-04-05T19:56:22.769Z,14.95
2023-04-05T19:58:53.549Z,16.10
2023-04-05T20:01:30.984Z,13.73
2023-04-05T20:03:58.079Z,14.63
2023-04-05T20:06:25.949Z,15.40
2023-04-05T20:08:57.265Z,15.45
2023-04-05T20:11:24.614Z,16.75
2023-04-05T20:13:56.782Z,15.48
2023-04-05T20:16:26.944Z,15.98
2023-04-05T20:18:54.177Z,14.13
2023-04-05T20:21:20.782Z,15.20
2023-04-05T20:23:47.328Z,19.35
2023-04-05T20:26:15.917Z,16.10
2023-04-05T20:28:55.966Z,15.32
2023-04-05T20:31:26.297Z,17.38
2023-04-05T20:34:11.219Z,33.47
2023-04-05T20:36:51.812Z,31.88
2023-04-05T20:39:18.610Z,22.65
2023-04-05T20:41:46.199Z,22.67
2023-04-05T20:44:12.653Z,18.55
2023-04-05T20:46:39.504Z,17.65
2023-04-05T20:49:06.560Z,18.77
2023-04-05T20:51:33.467Z,18.13
2023-04-05T20:54:00.116Z,19.95
2023-04-05T20:56:26.669Z,17.67
2023-04-05T20:58:54.596Z,19.35
2023-04-05T21:01:21.598Z,20.95
2023-04-05T21:03:48.030Z,16.58
2023-04-05T21:06:14.468Z,19.88
2023-04-05T21:08:41.344Z,19.33
2023-04-05T21:11:08.199Z,17.52
2023-04-05T21:13:35.337Z,18.45
2023-04-05T21:16:01.783Z,18.88
2023-04-05T21:18:28.468Z,17.90
2023-04-05T21:20:55.385Z,16.60
2023-04-05T21:23:25.976Z,19.92
2023-04-05T21:25:52.817Z,17.38
2023-04-05T21:28:19.241Z,20.40
2023-04-05T21:30:45.901Z,18.95
2023-04-05T21:33:12.971Z,17.75
2023-04-05T21:35:39.841Z,18.27
2023-04-05T21:38:06.527Z,16.23
2023-04-05T21:40:33.053Z,15.38
2023-04-05T21:42:59.765Z,17.33
2023-04-05T21:45:26.403Z,17.13
2023-04-05T21:47:53.960Z,17.52
2023-04-05T21:50:20.986Z,17.05
2023-04-05T21:52:47.723Z,15.88
2023-04-05T21:55:14.544Z,17.48
2023-04-05T21:57:41.037Z,17.55
2023-04-05T22:00:11.718Z,17.25
2023-04-05T22:02:41.505Z,23.58
2023-04-05T22:05:08.981Z,17.05
2023-04-05T22:07:35.961Z,17.48
2023-04-05T22:10:02.898Z,18.75
2023-04-05T22:12:29.573Z,19.38
2023-04-05T22:14:56.340Z,21.52
2023-04-05T22:17:22.738Z,22.02
2023-04-05T22:19:49.193Z,18.92
2023-04-05T22:22:16.410Z,21.20
2023-04-05T22:24:43.331Z,21.92
2023-04-05T22:27:10.935Z,20.38
2023-04-05T22:29:37.876Z,18.80
2023-04-05T22:32:04.495Z,19.83
2023-04-05T22:34:31.348Z,23.38
2023-04-05T22:36:57.785Z,21.05
2023-04-05T22:39:24.248Z,18.85
2023-04-05T22:41:50.764Z,23.02
2023-04-05T22:44:17.124Z,20.75
2023-04-05T22:46:43.530Z,20.20
2023-04-05T22:49:10.108Z,21.98
2023-04-05T22:51:37.254Z,22.45
2023-04-05T22:54:03.787Z,21.50
2023-04-05T22:56:31.432Z,20.50
2023-04-05T22:58:57.917Z,19.67
2023-04-05T23:01:24.394Z,20.67
2023-04-05T23:03:50.863Z,21.42
2023-04-05T23:06:17.386Z,18.80
2023-04-05T23:08:43.840Z,20.08
2023-04-05T23:11:10.406Z,21.60
2023-04-05T23:13:36.882Z,21.10
2023-04-05T23:16:03.857Z,18.95
2023-04-05T23:18:30.359Z,20.38
2023-04-05T23:20:56.805Z,20.17
2023-04-05T23:23:23.602Z,21.02
2023-04-05T23:25:50.283Z,20.63
2023-04-05T23:28:16.643Z,19.05
2023-04-05T23:30:43.032Z,20.83
2023-04-05T23:33:13.212Z,20.95
2023-04-05T23:35:40.485Z,19.38
2023-04-05T23:38:07.327Z,20.00
2023-04-05T23:40:33.890Z,22.52
2023-04-05T23:43:00.526Z,20.98
2023-04-05T23:45:27.028Z,19.08
2023-04-05T23:47:55.348Z,23.77
2023-04-05T23:50:22.158Z,18.65
2023-04-05T23:52:48.661Z,19.25
2023-04-05T23:55:15.463Z,19.65
2023-04-05T23:57:41.816Z,19.98
